createdAt,value
2018-08-10T00:01:42.896Z,9.27
2018-08-10T00:04:10.569Z,8.50
2018-08-10T00:06:38.590Z,8.57
2018-08-10T00:09:07.637Z,8.80
2018-08-10T00:11:35.196Z,7.13
2018-08-10T00:14:02.881Z,7.67
2018-08-10T00:16:30.357Z,8.43
2018-08-10T00:18:57.867Z,7.33
2018-08-10T00:21:25.286Z,7.23
2018-08-10T00:23:52.782Z,7.00
2018-08-10T00:26:20.215Z,6.73
2018-08-10T00:28:47.708Z,7.13
2018-08-10T00:31:15.131Z,7.10
2018-08-10T00:33:42.606Z,6.33
2018-08-10T00:36:10.038Z,6.27
2018-08-10T00:38:37.494Z,6.30
2018-08-10T00:41:04.922Z,6.30
2018-08-10T00:43:32.375Z,6.87
2018-08-10T00:45:59.941Z,6.80
2018-08-10T00:48:27.448Z,6.97
2018-08-10T00:50:54.960Z,6.10
2018-08-10T00:53:22.362Z,7.00
2018-08-10T00:55:49.820Z,6.70
2018-08-10T00:58:17.230Z,7.73
2018-08-10T01:00:44.716Z,6.97
2018-08-10T01:03:12.150Z,7.60
2018-08-10T01:05:39.630Z,7.33
2018-08-10T01:08:07.072Z,7.80
2018-08-10T01:10:34.660Z,8.50
2018-08-10T01:13:02.084Z,7.20
2018-08-10T01:15:29.570Z,9.37
2018-08-10T01:17:57.041Z,8.83
2018-08-10T01:20:24.528Z,8.43
2018-08-10T01:22:57.589Z,8.53
2018-08-10T01:25:26.229Z,8.07
2018-08-10T01:27:56.036Z,8.50
2018-08-10T01:30:24.412Z,8.70
2018-08-10T01:32:52.516Z,8.60
2018-08-10T01:35:19.979Z,8.67
2018-08-10T01:37:47.532Z,8.37
2018-08-10T01:40:15.532Z,7.87
2018-08-10T01:42:42.973Z,9.60
2018-08-10T01:45:10.578Z,8.60
2018-08-10T01:47:38.148Z,8.80
2018-08-10T01:50:06.435Z,9.70
2018-08-10T01:52:33.941Z,9.27
2018-08-10T01:55:01.542Z,9.27
2018-08-10T01:57:28.960Z,9.53
2018-08-10T01:59:56.387Z,9.30
2018-08-10T02:02:24.004Z,9.17
2018-08-10T02:04:51.896Z,9.50
2018-08-10T02:07:19.343Z,9.33
2018-08-10T02:09:46.797Z,8.90
2018-08-10T02:12:14.200Z,9.93
2018-08-10T02:14:41.633Z,9.27
2018-08-10T02:17:09.049Z,8.80
2018-08-10T02:19:37.543Z,8.87
2018-08-10T02:22:05.066Z,9.17
2018-08-10T02:24:32.533Z,8.70
2018-08-10T02:26:59.944Z,8.03
2018-08-10T02:29:27.413Z,8.20
2018-08-10T02:31:55.104Z,8.03
2018-08-10T02:34:22.565Z,8.30
2018-08-10T02:36:50.341Z,7.27
2018-08-10T02:39:17.795Z,7.83
2018-08-10T02:41:45.213Z,7.63
2018-08-10T02:44:12.655Z,7.20
2018-08-10T02:46:40.096Z,7.00
2018-08-10T02:49:08.065Z,7.10
2018-08-10T02:51:35.536Z,7.07
2018-08-10T02:54:02.993Z,8.40
2018-08-10T02:56:30.663Z,6.30
2018-08-10T02:58:58.104Z,6.63
2018-08-10T03:01:25.571Z,6.40
2018-08-10T03:03:53.490Z,6.57
2018-08-10T03:06:20.951Z,6.63
2018-08-10T03:08:48.507Z,6.70
2018-08-10T03:11:15.992Z,6.90
2018-08-10T03:13:43.398Z,6.23
2018-08-10T03:16:10.837Z,5.60
2018-08-10T03:18:38.270Z,5.90
2018-08-10T03:21:05.766Z,5.83
2018-08-10T03:23:33.182Z,5.93
2018-08-10T03:26:00.631Z,5.97
2018-08-10T03:28:28.132Z,5.93
2018-08-10T03:30:55.620Z,6.33
2018-08-10T03:33:23.067Z,6.00
2018-08-10T03:35:50.514Z,6.00
2018-08-10T03:38:17.908Z,5.30
2018-08-10T03:40:45.364Z,5.27
2018-08-10T03:43:12.760Z,5.20
2018-08-10T03:45:40.200Z,5.53
2018-08-10T03:48:07.607Z,5.13
2018-08-10T03:50:35.036Z,4.57
2018-08-10T03:53:02.471Z,5.10
2018-08-10T03:55:30.069Z,4.97
2018-08-10T03:57:57.488Z,4.97
2018-08-10T04:00:26.100Z,4.87
2018-08-10T04:02:53.483Z,4.90
2018-08-10T04:05:20.912Z,4.50
2018-08-10T04:07:48.354Z,3.93
2018-08-10T04:10:15.771Z,4.60
2018-08-10T04:12:43.217Z,4.73
2018-08-10T04:15:12.256Z,4.20
2018-08-10T04:17:39.696Z,3.43
2018-08-10T04:20:07.296Z,3.90
2018-08-10T04:22:34.955Z,3.33
2018-08-10T04:25:02.514Z,3.40
2018-08-10T04:27:30.032Z,3.00
2018-08-10T04:29:57.464Z,3.10
2018-08-10T04:32:24.919Z,2.83
2018-08-10T04:34:52.361Z,2.97
2018-08-10T04:37:19.943Z,3.07
2018-08-10T04:39:47.543Z,2.93
2018-08-10T04:42:15.049Z,2.50
2018-08-10T04:44:42.478Z,2.30
2018-08-10T04:47:09.955Z,2.20
2018-08-10T04:49:37.485Z,1.93
2018-08-10T04:52:05.252Z,1.60
2018-08-10T04:54:32.808Z,2.00
2018-08-10T04:57:00.244Z,1.57
2018-08-10T04:59:27.650Z,1.53
2018-08-10T05:01:55.059Z,1.20
2018-08-10T05:04:22.463Z,1.20
2018-08-10T05:06:49.900Z,1.17
2018-08-10T05:09:17.443Z,1.03
2018-08-10T05:11:44.884Z,1.10
2018-08-10T05:14:12.306Z,1.20
2018-08-10T05:16:40.122Z,0.97
2018-08-10T05:19:07.572Z,1.00
2018-08-10T05:21:35.251Z,0.90
2018-08-10T05:24:02.733Z,0.97
2018-08-10T05:26:30.139Z,1.10
2018-08-10T05:28:57.570Z,0.90
2018-08-10T05:31:24.970Z,1.10
2018-08-10T05:33:52.378Z,0.80
2018-08-10T05:36:19.768Z,0.70
2018-08-10T05:38:47.246Z,0.60
2018-08-10T05:41:14.785Z,1.10
2018-08-10T05:43:42.231Z,0.80
2018-08-10T05:46:09.698Z,0.70
2018-08-10T05:48:39.222Z,0.77
2018-08-10T05:51:08.383Z,1.37
2018-08-10T05:53:35.899Z,0.80
2018-08-10T05:56:03.318Z,0.83
2018-08-10T05:58:30.736Z,0.90
2018-08-10T06:00:58.134Z,0.70
2018-08-10T06:03:26.602Z,0.97
2018-08-10T06:05:54.009Z,0.80
2018-08-10T06:08:21.456Z,0.80
2018-08-10T06:10:48.863Z,1.30
2018-08-10T06:13:16.450Z,0.90
2018-08-10T06:15:43.855Z,0.90
2018-08-10T06:18:11.303Z,1.20
2018-08-10T06:20:39.704Z,1.00
2018-08-10T06:23:07.172Z,1.13
2018-08-10T06:25:34.599Z,1.10
2018-08-10T06:28:02.074Z,0.90
2018-08-10T06:30:29.492Z,1.20
2018-08-10T06:32:56.910Z,1.00
2018-08-10T06:35:24.290Z,1.00
2018-08-10T06:37:51.727Z,0.97
2018-08-10T06:40:19.151Z,1.10
2018-08-10T06:42:46.591Z,0.83
2018-08-10T06:45:13.989Z,1.10
2018-08-10T06:47:41.419Z,1.17
2018-08-10T06:50:08.916Z,1.13
2018-08-10T06:52:36.316Z,0.70
2018-08-10T06:55:04.110Z,1.43
2018-08-10T06:57:31.512Z,1.07
2018-08-10T06:59:58.944Z,1.13
2018-08-10T07:02:26.342Z,0.80
2018-08-10T07:04:53.774Z,1.40
2018-08-10T07:07:21.219Z,1.50
2018-08-10T07:09:48.635Z,1.90
2018-08-10T07:12:16.093Z,1.63
2018-08-10T07:14:43.551Z,1.70
2018-08-10T07:17:10.980Z,1.50
2018-08-10T07:19:38.455Z,1.80
2018-08-10T07:22:05.855Z,1.60
2018-08-10T07:24:33.282Z,1.67
2018-08-10T07:27:01.615Z,1.80
2018-08-10T07:29:29.168Z,2.03
2018-08-10T07:31:56.624Z,1.70
2018-08-10T07:34:24.049Z,1.97
2018-08-10T07:36:51.576Z,1.50
2018-08-10T07:39:19.136Z,1.40
2018-08-10T07:41:46.536Z,1.33
2018-08-10T07:44:13.995Z,1.30
2018-08-10T07:46:41.401Z,1.40
2018-08-10T07:49:09.558Z,1.43
2018-08-10T07:51:36.956Z,1.60
2018-08-10T07:54:04.767Z,1.13
2018-08-10T07:56:32.168Z,1.17
2018-08-10T07:58:59.639Z,1.60
2018-08-10T08:01:27.090Z,1.63
2018-08-10T08:03:54.549Z,1.00
2018-08-10T08:06:21.990Z,2.43
2018-08-10T08:08:49.442Z,1.67
2018-08-10T08:11:16.862Z,1.30
2018-08-10T08:13:44.312Z,1.27
2018-08-10T08:16:11.727Z,1.40
2018-08-10T08:18:39.135Z,1.30
2018-08-10T08:21:08.070Z,1.40
2018-08-10T08:23:35.699Z,1.40
2018-08-10T08:26:03.682Z,1.10
2018-08-10T08:28:31.510Z,1.40
2018-08-10T08:31:00.164Z,1.90
2018-08-10T08:33:28.074Z,1.20
2018-08-10T08:35:56.576Z,1.30
2018-08-10T08:38:35.995Z,1.40
2018-08-10T08:41:03.544Z,2.47
2018-08-10T08:44:41.350Z,1.60
2018-08-10T08:47:08.781Z,1.60
2018-08-10T08:49:36.531Z,1.43
2018-08-10T08:52:04.287Z,1.87
2018-08-10T08:55:26.508Z,1.20
2018-08-10T08:57:53.932Z,1.13
2018-08-10T09:00:21.388Z,1.40
2018-08-10T09:02:48.793Z,1.53
2018-08-10T09:05:16.316Z,1.40
2018-08-10T09:07:43.753Z,1.40
2018-08-10T09:10:14.246Z,1.80
2018-08-10T09:12:41.867Z,1.30
2018-08-10T09:15:14.316Z,1.63
2018-08-10T09:17:41.816Z,1.63
2018-08-10T09:20:09.878Z,1.40
2018-08-10T09:22:37.426Z,1.30
2018-08-10T09:25:06.934Z,1.43
2018-08-10T09:27:34.482Z,1.77
2018-08-10T09:30:01.935Z,1.40
2018-08-10T09:32:29.401Z,1.27
2018-08-10T09:34:56.826Z,1.30
2018-08-10T09:37:24.254Z,1.10
2018-08-10T09:39:51.697Z,1.20
2018-08-10T09:42:19.225Z,0.87
2018-08-10T09:44:46.635Z,1.30
2018-08-10T09:47:14.419Z,1.10
2018-08-10T09:49:43.404Z,2.10
2018-08-10T09:52:10.932Z,1.60
2018-08-10T09:55:19.290Z,1.80
2018-08-10T09:57:47.496Z,1.67
2018-08-10T10:00:21.584Z,1.80
2018-08-10T10:02:54.776Z,1.70
2018-08-10T10:05:24.004Z,1.53
2018-08-10T10:07:51.459Z,1.80
2018-08-10T10:10:18.994Z,1.50
2018-08-10T10:12:46.468Z,1.77
2018-08-10T10:15:13.903Z,1.83
2018-08-10T10:17:41.424Z,1.70
2018-08-10T10:20:08.850Z,1.37
2018-08-10T10:22:36.339Z,1.80
2018-08-10T10:25:04.147Z,1.60
2018-08-10T10:27:31.608Z,1.20
2018-08-10T10:30:34.091Z,1.50
2018-08-10T10:33:01.634Z,1.10
2018-08-10T10:35:29.073Z,1.47
2018-08-10T10:37:56.565Z,1.30
2018-08-10T10:40:24.002Z,1.20
2018-08-10T10:42:51.458Z,1.33
2018-08-10T10:45:18.883Z,1.40
2018-08-10T10:47:47.290Z,1.30
2018-08-10T10:50:15.191Z,1.10
2018-08-10T10:52:43.021Z,1.50
2018-08-10T10:55:10.888Z,1.10
2018-08-10T10:57:38.929Z,1.10
2018-08-10T11:00:10.305Z,0.97
2018-08-10T11:02:37.851Z,1.10
2018-08-10T11:05:05.539Z,1.00
2018-08-10T11:07:32.953Z,1.17
2018-08-10T11:10:00.402Z,1.53
2018-08-10T11:12:27.835Z,1.10
2018-08-10T11:14:55.280Z,1.10
2018-08-10T11:17:22.688Z,0.93
2018-08-10T11:19:50.118Z,1.40
2018-08-10T11:22:17.556Z,0.97
2018-08-10T11:24:44.991Z,1.10
2018-08-10T11:27:12.408Z,0.80
2018-08-10T11:29:39.842Z,1.33
2018-08-10T11:32:07.321Z,0.90
2018-08-10T11:34:34.700Z,1.10
2018-08-10T11:37:02.132Z,0.90
2018-08-10T11:39:29.708Z,0.90
2018-08-10T11:41:57.137Z,1.53
2018-08-10T11:44:24.592Z,1.10
2018-08-10T11:46:52.004Z,1.20
2018-08-10T11:49:19.491Z,1.30
2018-08-10T11:51:46.889Z,1.33
2018-08-10T11:54:14.330Z,1.40
2018-08-10T11:56:41.804Z,1.20
2018-08-10T11:59:09.358Z,1.60
2018-08-10T12:01:36.764Z,1.50
2018-08-10T12:04:04.211Z,1.40
2018-08-10T12:06:31.644Z,1.37
2018-08-10T12:08:59.182Z,1.13
2018-08-10T12:11:26.573Z,1.50
2018-08-10T12:13:54.094Z,1.40
2018-08-10T12:16:21.490Z,1.50
2018-08-10T12:18:49.007Z,1.10
2018-08-10T12:21:16.429Z,1.20
2018-08-10T12:23:43.887Z,1.60
2018-08-10T12:26:11.287Z,1.50
2018-08-10T12:28:38.736Z,1.10
2018-08-10T12:31:06.188Z,1.97
2018-08-10T12:33:33.606Z,1.90
2018-08-10T12:36:01.035Z,1.70
2018-08-10T12:38:28.555Z,1.63
2018-08-10T12:40:56.010Z,1.37
2018-08-10T12:43:23.428Z,1.60
2018-08-10T12:45:50.874Z,1.40
2018-08-10T12:48:18.298Z,1.53
2018-08-10T12:50:45.818Z,1.90
2018-08-10T12:53:13.214Z,1.40
2018-08-10T12:55:40.703Z,1.60
2018-08-10T12:58:08.152Z,1.73
2018-08-10T13:00:35.594Z,1.73
2018-08-10T13:03:03.111Z,1.40
2018-08-10T13:05:30.574Z,1.80
2018-08-10T13:07:57.980Z,1.80
2018-08-10T13:10:25.418Z,1.60
2018-08-10T13:12:52.946Z,1.50
2018-08-10T13:15:20.356Z,1.90
2018-08-10T13:17:47.748Z,1.60
2018-08-10T13:20:15.224Z,2.00
2018-08-10T13:22:43.074Z,2.00
2018-08-10T13:25:11.052Z,1.47
2018-08-10T13:27:38.505Z,1.97
2018-08-10T13:30:07.425Z,1.60
2018-08-10T13:32:34.851Z,1.97
2018-08-10T13:35:02.633Z,1.50
2018-08-10T13:37:30.074Z,1.63
2018-08-10T13:39:57.624Z,1.70
2018-08-10T13:42:25.031Z,1.70
2018-08-10T13:44:52.477Z,1.60
2018-08-10T13:47:19.887Z,1.23
2018-08-10T13:49:47.444Z,1.77
2018-08-10T13:52:15.130Z,1.73
2018-08-10T13:54:42.714Z,1.57
2018-08-10T13:57:10.227Z,1.40
2018-08-10T13:59:37.675Z,1.60
2018-08-10T14:02:05.233Z,1.60
2018-08-10T14:04:33.223Z,1.70
2018-08-10T14:07:00.675Z,1.30
2018-08-10T14:09:28.096Z,1.53
2018-08-10T14:11:55.535Z,1.30
2018-08-10T14:14:22.950Z,2.10
2018-08-10T14:16:50.385Z,1.30
2018-08-10T14:19:17.796Z,1.63
2018-08-10T14:21:45.235Z,1.50
2018-08-10T14:24:12.758Z,2.53
2018-08-10T14:26:40.210Z,1.40
2018-08-10T14:29:07.640Z,1.33
2018-08-10T14:31:35.067Z,1.40
2018-08-10T14:34:02.539Z,1.30
2018-08-10T14:36:29.982Z,1.20
2018-08-10T14:38:57.393Z,1.70
2018-08-10T14:41:24.867Z,1.67
2018-08-10T14:43:52.307Z,1.33
2018-08-10T14:46:19.793Z,1.40
2018-08-10T14:48:47.193Z,1.30
2018-08-10T14:51:14.644Z,1.60
2018-08-10T14:53:42.179Z,1.50
2018-08-10T14:56:09.581Z,3.20
2018-08-10T14:58:37.000Z,1.20
2018-08-10T15:01:04.490Z,1.27
2018-08-10T15:03:32.038Z,1.00
2018-08-10T15:05:59.515Z,1.27
2018-08-10T15:08:26.907Z,1.20
2018-08-10T15:10:54.425Z,1.30
2018-08-10T15:13:21.841Z,1.67
2018-08-10T15:15:49.262Z,1.30
2018-08-10T15:18:16.732Z,1.40
2018-08-10T15:20:44.164Z,1.53
2018-08-10T15:23:11.576Z,1.37
2018-08-10T15:25:39.068Z,1.83
2018-08-10T15:28:06.531Z,1.63
2018-08-10T15:30:33.999Z,1.30
2018-08-10T15:33:01.515Z,1.30
2018-08-10T15:35:28.935Z,1.50
2018-08-10T15:37:56.407Z,1.40
2018-08-10T15:40:23.834Z,1.60
2018-08-10T15:42:51.268Z,2.10
2018-08-10T15:45:18.902Z,1.70
2018-08-10T15:47:46.737Z,1.67
2018-08-10T15:50:14.265Z,1.90
2018-08-10T15:52:42.921Z,1.40
2018-08-10T15:55:10.774Z,2.43
2018-08-10T15:57:39.130Z,1.87
2018-08-10T16:00:14.403Z,1.67
2018-08-10T16:02:42.082Z,1.70
2018-08-10T16:05:10.430Z,1.43
2018-08-10T16:07:38.131Z,1.90
2018-08-10T16:10:05.849Z,1.93
2018-08-10T16:12:33.587Z,2.30
2018-08-10T16:15:01.016Z,1.90
2018-08-10T16:17:28.435Z,1.80
2018-08-10T16:19:55.855Z,1.50
2018-08-10T16:22:23.287Z,1.40
2018-08-10T16:24:50.692Z,1.63
2018-08-10T16:27:18.154Z,1.40
2018-08-10T16:29:45.563Z,1.70
2018-08-10T16:32:13.084Z,1.50
2018-08-10T16:34:40.551Z,1.50
2018-08-10T16:37:08.251Z,1.60
2018-08-10T16:39:35.743Z,1.60
2018-08-10T16:42:03.239Z,1.80
2018-08-10T16:44:30.722Z,1.97
2018-08-10T16:46:58.110Z,1.67
2018-08-10T16:49:25.574Z,1.80
2018-08-10T16:51:53.133Z,1.97
2018-08-10T16:54:20.651Z,1.70
2018-08-10T16:56:48.100Z,1.47
2018-08-10T16:59:15.542Z,2.07
2018-08-10T17:01:43.061Z,1.60
2018-08-10T17:04:10.535Z,2.17
2018-08-10T17:06:37.930Z,1.70
2018-08-10T17:09:07.088Z,2.30
2018-08-10T17:11:34.555Z,1.80
2018-08-10T17:14:02.029Z,1.70
2018-08-10T17:16:29.472Z,2.90
2018-08-10T17:18:56.914Z,1.90
2018-08-10T17:21:24.399Z,2.20
2018-08-10T17:23:51.826Z,2.20
2018-08-10T17:26:19.298Z,2.17
2018-08-10T17:28:46.762Z,1.90
2018-08-10T17:31:14.209Z,1.93
2018-08-10T17:33:41.704Z,1.70
2018-08-10T17:36:09.115Z,1.80
2018-08-10T17:38:36.564Z,1.40
2018-08-10T17:41:04.027Z,1.70
2018-08-10T17:43:31.462Z,1.60
2018-08-10T17:45:58.896Z,1.50
2018-08-10T17:48:26.354Z,1.50
2018-08-10T17:50:54.381Z,3.40
2018-08-10T17:53:21.806Z,1.50
2018-08-10T17:55:49.216Z,1.63
2018-08-10T17:58:16.629Z,1.60
2018-08-10T18:00:44.066Z,1.60
2018-08-10T18:03:11.513Z,1.50
2018-08-10T18:05:38.919Z,1.80
2018-08-10T18:08:06.406Z,1.60
2018-08-10T18:10:33.843Z,1.80
2018-08-10T18:13:01.338Z,1.60
2018-08-10T18:15:28.785Z,2.00
2018-08-10T18:17:56.279Z,1.80
2018-08-10T18:20:23.787Z,1.70
2018-08-10T18:22:52.002Z,1.50
2018-08-10T18:25:20.446Z,1.90
2018-08-10T18:27:48.055Z,1.60
2018-08-10T18:30:17.614Z,1.70
2018-08-10T18:32:45.409Z,2.10
2018-08-10T18:35:13.336Z,2.80
2018-08-10T18:37:42.555Z,2.80
2018-08-10T18:40:11.753Z,2.60
2018-08-10T18:42:40.252Z,2.73
2018-08-10T18:45:08.826Z,3.40
2018-08-10T18:47:36.887Z,3.20
2018-08-10T18:50:05.121Z,3.50
2018-08-10T18:52:32.614Z,3.00
2018-08-10T18:55:00.122Z,3.20
2018-08-10T18:57:27.645Z,3.30
2018-08-10T18:59:55.303Z,2.50
2018-08-10T19:02:23.658Z,2.23
2018-08-10T19:04:51.310Z,2.67
2018-08-10T19:07:18.764Z,2.67
2018-08-10T19:09:46.203Z,2.77
2018-08-10T19:12:13.635Z,2.33
2018-08-10T19:14:41.150Z,2.30
2018-08-10T19:17:08.584Z,2.50
2018-08-10T19:19:36.060Z,2.30
2018-08-10T19:22:03.515Z,2.40
2018-08-10T19:24:30.962Z,2.70
2018-08-10T19:26:58.381Z,2.70
2018-08-10T19:29:26.106Z,1.90
2018-08-10T19:31:53.609Z,2.20
2018-08-10T19:34:21.125Z,3.33
2018-08-10T19:36:48.535Z,2.60
2018-08-10T19:39:16.015Z,2.83
2018-08-10T19:41:43.592Z,3.33
2018-08-10T19:44:11.327Z,3.00
2018-08-10T19:46:38.931Z,2.50
2018-08-10T19:49:07.811Z,2.27
2018-08-10T19:51:35.228Z,2.20
2018-08-10T19:54:03.618Z,2.67
2018-08-10T19:56:31.030Z,2.77
2018-08-10T19:58:58.601Z,2.67
2018-08-10T20:01:26.026Z,2.20
2018-08-10T20:03:53.613Z,2.30
2018-08-10T20:06:21.054Z,2.07
2018-08-10T20:08:48.487Z,2.13
2018-08-10T20:11:15.931Z,2.97
2018-08-10T20:13:43.386Z,2.50
2018-08-10T20:16:10.827Z,3.00
2018-08-10T20:18:38.351Z,2.33
2018-08-10T20:21:06.237Z,2.73
2018-08-10T20:23:33.691Z,2.57
2018-08-10T20:26:01.295Z,2.53
2018-08-10T20:28:28.745Z,2.70
2018-08-10T20:30:56.209Z,2.63
2018-08-10T20:33:23.675Z,2.67
2018-08-10T20:35:51.111Z,2.60
2018-08-10T20:38:18.572Z,2.30
2018-08-10T20:40:46.006Z,2.47
2018-08-10T20:43:13.468Z,2.60
2018-08-10T20:45:41.088Z,2.40
2018-08-10T20:48:08.609Z,2.80
2018-08-10T20:50:36.111Z,2.73
2018-08-10T20:53:03.639Z,2.63
2018-08-10T20:55:31.123Z,2.83
2018-08-10T20:57:58.514Z,2.47
2018-08-10T21:00:25.986Z,2.80
2018-08-10T21:02:53.408Z,2.40
2018-08-10T21:05:20.880Z,2.87
2018-08-10T21:07:50.599Z,2.20
2018-08-10T21:10:21.908Z,2.50
2018-08-10T21:12:49.307Z,2.30
2018-08-10T21:15:16.897Z,2.53
2018-08-10T21:17:45.152Z,3.00
2018-08-10T21:20:13.871Z,3.03
2018-08-10T21:22:41.395Z,3.17
2018-08-10T21:25:09.679Z,3.27
2018-08-10T21:27:37.743Z,3.40
2018-08-10T21:30:07.759Z,2.87
2018-08-10T21:32:35.162Z,3.50
2018-08-10T21:35:02.703Z,3.40
2018-08-10T21:37:30.203Z,3.00
2018-08-10T21:39:57.653Z,2.77
2018-08-10T21:42:25.050Z,2.73
2018-08-10T21:44:52.702Z,2.70
2018-08-10T21:47:20.126Z,2.60
2018-08-10T21:49:47.595Z,2.90
2018-08-10T21:52:15.188Z,2.93
2018-08-10T21:54:42.647Z,2.80
2018-08-10T21:57:10.091Z,3.27
2018-08-10T21:59:37.767Z,2.73
2018-08-10T22:02:07.186Z,3.17
2018-08-10T22:04:34.594Z,3.20
2018-08-10T22:07:02.075Z,3.00
2018-08-10T22:09:29.548Z,3.33
2018-08-10T22:11:57.000Z,3.10
2018-08-10T22:14:30.325Z,3.23
2018-08-10T22:17:03.416Z,3.00
2018-08-10T22:19:30.854Z,3.70
2018-08-10T22:21:58.334Z,3.03
2018-08-10T22:24:25.776Z,3.40
2018-08-10T22:26:53.247Z,2.70
2018-08-10T22:29:20.667Z,3.17
2018-08-10T22:31:48.100Z,2.83
2018-08-10T22:34:15.553Z,2.60
2018-08-10T22:36:43.008Z,3.30
2018-08-10T22:39:10.534Z,2.97
2018-08-10T22:41:38.060Z,2.73
2018-08-10T22:44:05.531Z,2.60
2018-08-10T22:46:32.994Z,2.80
2018-08-10T22:49:00.598Z,2.67
2018-08-10T22:51:28.100Z,3.30
2018-08-10T22:53:55.586Z,3.17
2018-08-10T22:56:23.038Z,3.10
2018-08-10T22:58:50.501Z,2.77
2018-08-10T23:01:18.046Z,2.67
2018-08-10T23:03:45.518Z,2.63
2018-08-10T23:06:12.979Z,2.93
2018-08-10T23:08:40.513Z,3.10
2018-08-10T23:11:07.929Z,3.33
2018-08-10T23:13:35.470Z,3.40
2018-08-10T23:16:02.995Z,2.93
2018-08-10T23:18:30.440Z,3.07
2018-08-10T23:20:57.897Z,3.27
2018-08-10T23:23:25.398Z,2.87
2018-08-10T23:25:52.815Z,3.43
2018-08-10T23:28:20.292Z,3.27
2018-08-10T23:30:47.731Z,3.50
2018-08-10T23:33:15.193Z,3.43
2018-08-10T23:35:42.624Z,3.40
2018-08-10T23:38:10.074Z,3.97
2018-08-10T23:40:37.519Z,3.30
2018-08-10T23:43:05.363Z,3.40
2018-08-10T23:45:32.799Z,3.80
2018-08-10T23:48:00.277Z,3.70
2018-08-10T23:50:27.730Z,3.50
2018-08-10T23:52:55.189Z,3.10
2018-08-10T23:55:22.622Z,3.57
2018-08-10T23:57:50.156Z,3.20
